Terminal Aerodrome Forecast
Issued by NWS Cleveland, OH

Home | Current Version | Previous Version | Text Only | Print | Product List | Glossary On
Versions: 1 2 3 4 5 6 7 8 9 10 11 12 13 14 15 16 17 18
000
FTUS41 KCLE 241126
TAFMFD
TAF
KMFD 241126Z 2412/2512 22010KT P6SM SCT040 SCT120 BKN200
     FM241900 22010KT P6SM VCTS BKN035CB OVC060
     FM242200 19008KT P6SM SCT060 BKN200
     FM250100 18005KT P6SM SCT120 BKN200
     FM251100 22006KT P6SM VCTS BKN035CB OVC120=

USA.gov is the U.S. government's official web portal to all federal, state and local government web resources and services.